createdAt,value
2024-02-21T00:00:12.713Z,96666.06
2024-02-21T00:05:15.528Z,96661.97
2024-02-21T00:10:18.316Z,96654.19
2024-02-21T00:15:21.026Z,96650.72
2024-02-21T00:20:24.043Z,96648.63
2024-02-21T00:25:27.359Z,96643.59
2024-02-21T00:30:30.027Z,96635.81
2024-02-21T00:35:32.763Z,96632.34
2024-02-21T00:40:35.433Z,96620.66
2024-02-21T00:45:37.892Z,96624.06
2024-02-21T00:50:40.483Z,96614.22
2024-02-21T00:55:44.480Z,96609.53
2024-02-21T01:00:46.986Z,96617.53
2024-02-21T01:05:49.399Z,96614.47
2024-02-21T01:10:52.622Z,96609.94
2024-02-21T01:15:55.228Z,96604.22
2024-02-21T01:20:57.728Z,96603.19
2024-02-21T01:26:00.244Z,96592.34
2024-02-21T01:31:03.049Z,96588.22
2024-02-21T01:36:05.845Z,96587.88
2024-02-21T01:41:08.673Z,96588.06
2024-02-21T01:46:11.559Z,96584.53
2024-02-21T01:51:14.226Z,96573.69
2024-02-21T01:56:16.683Z,96563.03
2024-02-21T02:01:21.726Z,96557.66
2024-02-21T02:06:24.903Z,96557.19
2024-02-21T02:11:27.693Z,96548.84
2024-02-21T02:16:31.037Z,96537.78
2024-02-21T02:21:33.717Z,96524.41
2024-02-21T02:26:36.163Z,96526.25
2024-02-21T02:31:40.038Z,96516.47
2024-02-21T02:36:42.480Z,96511.31
2024-02-21T02:41:46.103Z,96511.47
2024-02-21T02:46:48.602Z,96501.00
2024-02-21T02:51:51.138Z,96500.81
2024-02-21T02:56:53.879Z,96478.31
2024-02-21T03:01:56.765Z,96486.13
2024-02-21T03:06:59.669Z,96481.03
2024-02-21T03:12:04.605Z,96470.16
2024-02-21T03:17:07.041Z,96473.03
2024-02-21T03:22:09.531Z,96473.03
2024-02-21T03:27:11.985Z,96480.38
2024-02-21T03:32:14.705Z,96479.56
2024-02-21T03:37:17.382Z,96474.25
2024-02-21T03:42:19.806Z,96470.16
2024-02-21T03:47:22.337Z,96478.97
2024-02-21T03:52:24.873Z,96467.06
2024-02-21T03:57:27.673Z,96461.13
2024-02-21T04:02:30.632Z,96461.28
2024-02-21T04:07:33.288Z,96458.25
2024-02-21T04:12:37.277Z,96457.00
2024-02-21T04:17:39.922Z,96452.97
2024-02-21T04:22:42.409Z,96448.56
2024-02-21T04:27:44.971Z,96435.44
2024-02-21T04:32:47.405Z,96441.44
2024-02-21T04:37:50.075Z,96431.88
2024-02-21T04:42:52.526Z,96426.59
2024-02-21T04:47:55.379Z,96414.78
2024-02-21T04:52:57.899Z,96413.72
2024-02-21T04:58:01.677Z,96403.94
2024-02-21T05:03:04.032Z,96389.72
2024-02-21T05:08:06.813Z,96387.31
2024-02-21T05:13:10.908Z,96382.00
2024-02-21T05:18:13.475Z,96370.16
2024-02-21T05:23:15.924Z,96366.91
2024-02-21T05:28:18.405Z,96357.31
2024-02-21T05:33:22.883Z,96360.50
2024-02-21T05:38:25.707Z,96352.91
2024-02-21T05:43:28.365Z,96352.69
2024-02-21T05:48:32.156Z,96335.03
2024-02-21T05:53:37.743Z,96332.78
2024-02-21T05:58:40.447Z,96322.44
2024-02-21T06:03:43.118Z,96324.41
2024-02-21T06:08:45.915Z,96318.59
2024-02-21T06:13:48.410Z,96314.59
2024-02-21T06:18:50.979Z,96328.88
2024-02-21T06:23:53.470Z,96311.75
2024-02-21T06:28:56.310Z,96304.78
2024-02-21T06:33:58.914Z,96302.00
2024-02-21T06:39:01.817Z,96298.28
2024-02-21T06:44:04.896Z,96302.72
2024-02-21T06:49:07.561Z,96314.78
2024-02-21T06:54:10.634Z,96313.59
2024-02-21T06:59:16.843Z,96302.78
2024-02-21T07:04:19.433Z,96293.91
2024-02-21T07:09:21.876Z,96285.00
2024-02-21T07:14:24.286Z,96293.03
2024-02-21T07:19:26.899Z,96287.81
2024-02-21T07:24:29.407Z,96279.97
2024-02-21T07:29:32.040Z,96284.16
2024-02-21T07:34:34.598Z,96284.72
2024-02-21T07:39:37.152Z,96279.53
2024-02-21T07:44:39.587Z,96274.22
2024-02-21T07:49:42.192Z,96278.25
2024-02-21T07:54:44.661Z,96264.81
2024-02-21T07:59:49.375Z,96251.19
2024-02-21T08:04:52.181Z,96238.91
2024-02-21T08:09:54.775Z,96217.31
2024-02-21T08:14:57.254Z,96218.25
2024-02-21T08:19:59.860Z,96209.59
2024-02-21T08:25:02.263Z,96198.56
2024-02-21T08:30:05.121Z,96201.72
2024-02-21T08:35:07.748Z,96199.69
2024-02-21T08:40:10.749Z,96205.91
2024-02-21T08:45:13.249Z,96212.91
2024-02-21T08:50:23.584Z,96210.78
2024-02-21T08:55:31.241Z,96203.91
2024-02-21T09:00:34.065Z,96206.53
2024-02-21T09:05:36.629Z,96195.22
2024-02-21T09:10:39.372Z,96194.25
2024-02-21T09:15:42.024Z,96192.00
2024-02-21T09:20:44.678Z,96181.28
2024-02-21T09:25:47.206Z,96190.50
2024-02-21T09:30:49.840Z,96199.56
2024-02-21T09:35:52.436Z,96191.03
2024-02-21T09:40:55.305Z,96196.91
2024-02-21T09:45:57.964Z,96188.94
2024-02-21T09:51:00.521Z,96173.41
2024-02-21T09:56:03.202Z,96178.81
2024-02-21T10:01:16.842Z,96166.13
2024-02-21T10:06:24.081Z,96162.28
2024-02-21T10:11:26.664Z,96154.97
2024-02-21T10:16:29.446Z,96151.00
2024-02-21T10:21:32.314Z,96150.94
2024-02-21T10:26:34.901Z,96146.16
2024-02-21T10:31:37.925Z,96144.66
2024-02-21T10:36:40.712Z,96136.19
2024-02-21T10:41:43.392Z,96119.69
2024-02-21T10:46:46.326Z,96110.72
2024-02-21T10:51:48.854Z,96086.88
2024-02-21T10:56:51.748Z,96073.53
2024-02-21T11:01:58.867Z,96071.13
2024-02-21T11:07:02.107Z,96048.78
2024-02-21T11:12:04.941Z,96042.88
2024-02-21T11:17:07.930Z,96028.91
2024-02-21T11:22:10.828Z,96015.41
2024-02-21T11:27:13.395Z,96007.84
2024-02-21T11:32:16.485Z,95992.41
2024-02-21T11:37:19.174Z,95979.34
2024-02-21T11:42:21.823Z,95970.66
2024-02-21T11:47:24.374Z,95971.38
2024-02-21T11:52:27.457Z,95960.28
2024-02-21T11:57:30.516Z,95956.41
2024-02-21T12:02:33.293Z,95933.22
2024-02-21T12:07:36.672Z,95912.75
2024-02-21T12:12:40.161Z,95903.03
2024-02-21T12:17:43.225Z,95906.56
2024-02-21T12:22:46.155Z,95896.88
2024-02-21T12:27:50.095Z,95888.22
2024-02-21T12:32:52.664Z,95872.22
2024-02-21T12:37:55.186Z,95864.88
2024-02-21T12:42:57.888Z,95858.69
2024-02-21T12:48:00.326Z,95843.06
2024-02-21T12:53:02.834Z,95836.81
2024-02-21T12:58:05.362Z,95828.00
2024-02-21T13:03:08.139Z,95813.16
2024-02-21T13:08:10.777Z,95801.78
2024-02-21T13:13:13.333Z,95785.47
2024-02-21T13:18:15.929Z,95775.31
2024-02-21T13:23:18.361Z,95764.53
2024-02-21T13:28:20.888Z,95760.28
2024-02-21T13:33:23.418Z,95762.69
2024-02-21T13:38:26.109Z,95750.34
2024-02-21T13:43:28.912Z,95750.06
2024-02-21T13:48:31.580Z,95734.03
2024-02-21T13:53:35.268Z,95721.00
2024-02-21T13:58:38.579Z,95713.75
2024-02-21T14:03:41.035Z,95706.34
2024-02-21T14:08:43.741Z,95692.16
2024-02-21T14:13:46.289Z,95695.09
2024-02-21T14:18:48.981Z,95681.63
2024-02-21T14:23:51.626Z,95678.31
2024-02-21T14:28:54.399Z,95664.06
2024-02-21T14:33:57.074Z,95657.81
2024-02-21T14:39:00.240Z,95648.19
2024-02-21T14:44:05.112Z,95636.16
2024-02-21T14:49:07.777Z,95636.72
2024-02-21T14:54:10.733Z,95631.31
2024-02-21T14:59:18.509Z,95628.47
2024-02-21T15:04:29.054Z,95618.69
2024-02-21T15:09:33.627Z,95620.09
2024-02-21T15:14:36.698Z,95633.41
2024-02-21T15:19:40.522Z,95621.00
2024-02-21T15:24:43.616Z,95621.69
2024-02-21T15:29:46.110Z,95615.19
2024-02-21T15:34:48.938Z,95610.59
2024-02-21T15:39:51.547Z,95605.91
2024-02-21T15:44:54.180Z,95610.47
2024-02-21T15:49:56.612Z,95607.00
2024-02-21T15:54:59.223Z,95606.41
2024-02-21T16:00:01.650Z,95598.94
2024-02-21T16:05:10.073Z,95588.03
2024-02-21T16:10:13.026Z,95591.06
2024-02-21T16:15:15.538Z,95587.94
2024-02-21T16:20:18.198Z,95575.09
2024-02-21T16:25:20.814Z,95572.53
2024-02-21T16:30:24.535Z,95570.47
2024-02-21T16:35:29.240Z,95569.47
2024-02-21T16:40:31.870Z,95563.41
2024-02-21T16:45:34.844Z,95561.59
2024-02-21T16:50:45.221Z,95557.34
2024-02-21T16:55:51.999Z,95558.16
2024-02-21T17:00:54.471Z,95561.47
2024-02-21T17:06:07.043Z,95558.03
2024-02-21T17:11:16.933Z,95550.00
2024-02-21T17:16:19.819Z,95550.03
2024-02-21T17:21:22.203Z,95527.22
2024-02-21T17:26:24.919Z,95537.72
2024-02-21T17:31:28.972Z,95528.13
2024-02-21T17:36:31.437Z,95519.56
2024-02-21T17:41:33.872Z,95517.66
2024-02-21T17:46:41.084Z,95510.97
2024-02-21T17:51:43.695Z,95500.25
2024-02-21T17:56:46.112Z,95499.19
2024-02-21T18:01:48.543Z,95490.06
2024-02-21T18:06:51.209Z,95485.25
2024-02-21T18:11:53.956Z,95476.41
2024-02-21T18:16:56.676Z,95473.97
2024-02-21T18:22:00.050Z,95470.25
2024-02-21T18:27:02.416Z,95455.53
2024-02-21T18:32:05.010Z,95456.31
2024-02-21T18:37:07.442Z,95459.28
2024-02-21T18:42:09.866Z,95440.78
2024-02-21T18:47:13.306Z,95434.88
2024-02-21T18:52:15.785Z,95426.31
2024-02-21T18:57:18.165Z,95423.88
2024-02-21T19:02:21.144Z,95422.78
2024-02-21T19:07:23.804Z,95412.63
2024-02-21T19:12:27.490Z,95409.66
2024-02-21T19:17:31.316Z,95393.03
2024-02-21T19:22:37.334Z,95395.69
2024-02-21T19:27:41.145Z,95392.47
2024-02-21T19:32:43.724Z,95397.56
2024-02-21T19:37:46.170Z,95391.44
2024-02-21T19:42:48.599Z,95389.56
2024-02-21T19:47:51.168Z,95381.53
2024-02-21T19:52:56.716Z,95371.06
2024-02-21T19:57:59.899Z,95369.44
2024-02-21T20:03:04.424Z,95356.34
2024-02-21T20:08:07.256Z,95355.25
2024-02-21T20:13:10.048Z,95353.13
2024-02-21T20:18:13.512Z,95345.94
2024-02-21T20:23:17.019Z,95347.00
2024-02-21T20:28:19.508Z,95341.13
2024-02-21T20:33:22.246Z,95332.03
2024-02-21T20:38:24.790Z,95321.31
2024-02-21T20:43:27.250Z,95314.38
2024-02-21T20:48:32.127Z,95314.63
2024-02-21T20:53:34.496Z,95299.91
2024-02-21T20:58:36.974Z,95297.22
2024-02-21T21:03:39.962Z,95302.06
2024-02-21T21:08:42.472Z,95297.22
2024-02-21T21:13:44.995Z,95295.06
2024-02-21T21:18:47.562Z,95292.94
2024-02-21T21:23:50.012Z,95284.91
2024-02-21T21:28:57.625Z,95288.09
2024-02-21T21:34:00.244Z,95274.72
2024-02-21T21:39:05.923Z,95275.78
2024-02-21T21:44:08.408Z,95275.78
2024-02-21T21:49:10.925Z,95265.09
2024-02-21T21:54:13.395Z,95259.72
2024-02-21T21:59:15.786Z,95250.63
2024-02-21T22:04:19.392Z,95251.44
2024-02-21T22:09:21.953Z,95250.59
2024-02-21T22:14:24.452Z,95257.53
2024-02-21T22:19:26.996Z,95245.75
2024-02-21T22:24:29.538Z,95241.22
2024-02-21T22:29:31.964Z,95232.09
2024-02-21T22:34:34.710Z,95237.97
2024-02-21T22:39:37.498Z,95217.31
2024-02-21T22:44:39.976Z,95217.84
2024-02-21T22:49:42.549Z,95201.66
2024-02-21T22:54:44.990Z,95192.31
2024-02-21T22:59:47.809Z,95175.41
2024-02-21T23:04:50.352Z,95166.31
2024-02-21T23:09:52.763Z,95140.09
2024-02-21T23:14:55.161Z,95135.50
2024-02-21T23:19:57.659Z,95134.63
2024-02-21T23:25:00.031Z,95120.66
2024-02-21T23:30:02.486Z,95103.44
2024-02-21T23:35:05.872Z,95088.69
2024-02-21T23:40:11.125Z,95078.47
2024-02-21T23:45:13.583Z,95066.44
2024-02-21T23:50:16.037Z,95058.44
2024-02-21T23:55:18.426Z,95053.03
